Time;durP1;ratioP1;P1;durP2;ratioP2;P2;SDS_P1;SDS_P2;PMS_P1;PMS_P2;Temp;Humidity;BMP_temperature;BMP_pressure;BME280_temperature;BME280_humidity;BME280_pressure;Samples;Min_cycle;Max_cycle;Signal;HPM_P1;HPM_P2
2021/01/16 00:00:30;;;;;;;42.78;17.15;;;-3.00;99.90;;;;;;5048014;28;20447;-57
2021/01/16 00:02:56;;;;;;;38.58;16.73;;;-2.90;99.90;;;;;;5047251;28;20032;-58
2021/01/16 00:05:24;;;;;;;37.97;15.30;;;-3.00;99.90;;;;;;5047207;28;20154;-58
2021/01/16 00:08:06;;;;;;;34.75;14.85;;;-3.00;99.90;;;;;;5048006;28;20033;-56
2021/01/16 00:10:47;;;;;;;39.85;17.15;;;-3.00;99.90;;;;;;5047094;28;20503;-55
2021/01/16 00:13:15;;;;;;;37.20;13.73;;;-3.00;99.90;;;;;;5033860;28;20053;-53
2021/01/16 00:15:41;;;;;;;25.23;11.50;;;-3.10;99.90;;;;;;5046078;28;20044;-54
2021/01/16 00:18:13;;;;;;;20.02;9.32;;;-3.10;99.90;;;;;;5047747;28;20115;-58
2021/01/16 00:20:41;;;;;;;25.35;11.75;;;-3.10;99.90;;;;;;5039867;28;20170;-54
2021/01/16 00:23:07;;;;;;;29.33;12.48;;;-3.20;99.90;;;;;;5049539;28;20055;-57
2021/01/16 00:25:34;;;;;;;22.58;9.80;;;-3.20;99.90;;;;;;5050623;28;20041;-56
2021/01/16 00:28:00;;;;;;;19.85;7.03;;;-3.20;99.90;;;;;;5050462;28;20044;-55
2021/01/16 00:30:28;;;;;;;16.85;7.13;;;-3.20;99.90;;;;;;5049406;28;20041;-58
2021/01/16 00:32:55;;;;;;;14.95;5.80;;;-3.20;99.90;;;;;;5054962;28;20143;-56
2021/01/16 00:35:21;;;;;;;17.25;7.88;;;-3.20;99.90;;;;;;5052572;28;20309;-56
2021/01/16 00:37:49;;;;;;;15.85;5.80;;;-3.20;99.90;;;;;;5047627;28;20416;-57
2021/01/16 00:40:24;;;;;;;10.13;5.30;;;-3.20;99.90;;;;;;5051130;28;20041;-57
2021/01/16 00:42:51;;;;;;;18.38;7.25;;;-3.30;99.90;;;;;;5049066;28;20557;-56
2021/01/16 00:45:18;;;;;;;19.52;7.35;;;-3.30;99.90;;;;;;5050914;28;20052;-55
2021/01/16 00:47:45;;;;;;;19.77;8.95;;;-3.10;99.90;;;;;;5049918;28;20035;-56
2021/01/16 00:50:17;;;;;;;23.17;9.55;;;-3.10;99.90;;;;;;5051046;28;20131;-53
2021/01/16 00:52:56;;;;;;;20.40;8.50;;;-3.10;99.90;;;;;;5048699;28;20039;-56
2021/01/16 00:55:23;;;;;;;17.55;7.93;;;-3.10;99.90;;;;;;5050960;28;20037;-57
2021/01/16 00:57:48;;;;;;;22.00;9.60;;;-3.20;99.90;;;;;;5050082;28;20105;-57
2021/01/16 01:00:15;;;;;;;20.70;7.82;;;-3.30;99.90;;;;;;5050168;28;20443;-57
2021/01/16 01:02:42;;;;;;;18.77;8.82;;;-3.30;99.90;;;;;;5048760;28;20029;-57
2021/01/16 01:05:10;;;;;;;19.00;9.13;;;-3.30;99.90;;;;;;5050447;28;20112;-57
2021/01/16 01:07:36;;;;;;;21.75;8.48;;;-3.40;99.90;;;;;;5049689;28;20024;-57
2021/01/16 01:10:04;;;;;;;18.85;7.88;;;-3.40;99.90;;;;;;5050712;28;20037;-57
2021/01/16 01:12:29;;;;;;;18.65;7.20;;;-3.40;99.90;;;;;;5048045;28;20025;-56
2021/01/16 01:14:55;;;;;;;16.48;7.88;;;-3.40;99.90;;;;;;5050615;28;20066;-57
2021/01/16 01:17:21;;;;;;;12.55;5.72;;;-3.40;99.90;;;;;;5049418;28;20139;-55
2021/01/16 01:19:46;;;;;;;14.00;4.82;;;-3.50;99.90;;;;;;5043896;28;20033;-56
2021/01/16 01:22:12;;;;;;;10.32;4.13;;;-3.50;99.90;;;;;;5047848;28;20059;-54
2021/01/16 01:24:38;;;;;;;12.40;5.93;;;-3.60;99.90;;;;;;5049702;28;20028;-56
2021/01/16 01:27:05;;;;;;;11.77;5.55;;;-3.60;99.90;;;;;;5048238;28;20060;-57
2021/01/16 01:29:31;;;;;;;13.05;5.57;;;-3.70;99.90;;;;;;5050319;28;20448;-56
2021/01/16 01:31:56;;;;;;;13.43;5.68;;;-3.80;99.90;;;;;;5049519;28;20121;-54
2021/01/16 01:34:22;;;;;;;16.35;5.78;;;-3.80;99.90;;;;;;5047752;28;20076;-57
2021/01/16 01:36:48;;;;;;;16.92;6.82;;;-3.70;99.90;;;;;;5049608;28;20033;-56
2021/01/16 01:39:14;;;;;;;10.45;4.38;;;-3.70;99.90;;;;;;5050076;28;20404;-57
2021/01/16 01:41:40;;;;;;;11.77;5.05;;;-3.50;99.90;;;;;;5049071;28;20507;-57
2021/01/16 01:44:08;;;;;;;7.93;3.75;;;-3.30;99.90;;;;;;5049536;28;20033;-55
2021/01/16 01:46:35;;;;;;;9.70;4.03;;;-3.10;99.90;;;;;;5048873;28;20047;-57
2021/01/16 01:49:02;;;;;;;11.52;4.40;;;-3.00;99.90;;;;;;5049925;28;20040;-57
2021/01/16 01:51:31;;;;;;;11.23;4.40;;;-3.00;99.90;;;;;;5048871;28;20554;-55
2021/01/16 01:53:58;;;;;;;10.82;5.00;;;-3.10;99.90;;;;;;5048905;28;20438;-55
2021/01/16 01:56:28;;;;;;;9.20;3.97;;;-3.20;99.90;;;;;;5048796;28;20032;-55
2021/01/16 01:58:57;;;;;;;10.90;3.83;;;-3.30;99.90;;;;;;5049795;28;20040;-52
2021/01/16 02:01:27;;;;;;;9.20;3.53;;;-3.50;99.90;;;;;;5048543;28;20029;-57
2021/01/16 02:03:54;;;;;;;8.30;2.92;;;-3.60;99.90;;;;;;5048804;28;20451;-54
2021/01/16 02:06:20;;;;;;;5.15;2.75;;;-3.60;99.90;;;;;;5048571;28;20388;-54
2021/01/16 02:08:46;;;;;;;7.07;3.00;;;-3.20;99.90;;;;;;5049901;28;20033;-56
2021/01/16 02:11:11;;;;;;;5.47;2.30;;;-2.90;99.90;;;;;;5048544;28;20029;-53
2021/01/16 02:13:38;;;;;;;6.13;2.13;;;-2.60;99.90;;;;;;5048933;28;20433;-56
2021/01/16 02:16:17;;;;;;;5.20;1.65;;;-2.30;99.90;;;;;;5047503;28;20034;-54
2021/01/16 02:18:45;;;;;;;8.23;2.10;;;-2.20;99.90;;;;;;5049309;28;20493;-57
2021/01/16 02:21:22;;;;;;;6.05;2.08;;;-2.00;99.90;;;;;;5048305;28;20029;-57
2021/01/16 02:24:23;;;;;;;7.47;1.88;;;-1.80;99.90;;;;;;5048449;28;20037;-55
2021/01/16 02:27:15;;;;;;;4.93;1.75;;;-2.00;99.90;;;;;;5044821;28;20037;-54
2021/01/16 02:29:42;;;;;;;5.07;1.50;;;-2.00;99.90;;;;;;5049348;28;20037;-56
2021/01/16 02:32:08;;;;;;;6.28;2.10;;;-1.90;99.90;;;;;;5029883;28;20037;-57
2021/01/16 02:34:38;;;;;;;3.83;1.60;;;-1.90;99.90;;;;;;5048488;28;20092;-56
2021/01/16 02:37:22;;;;;;;4.10;1.40;;;-1.90;99.90;;;;;;5047243;28;20110;-56
2021/01/16 02:40:02;;;;;;;5.90;2.20;;;-1.90;99.90;;;;;;5049158;28;20411;-56
2021/01/16 02:43:00;;;;;;;5.38;1.48;;;-1.80;99.90;;;;;;5221076;22;20064;-57
2021/01/16 02:45:33;;;;;;;4.30;1.92;;;-1.80;99.90;;;;;;5047896;28;20049;-57
2021/01/16 02:48:09;;;;;;;5.30;1.60;;;-1.80;99.90;;;;;;5047689;28;20429;-57
2021/01/16 02:50:45;;;;;;;4.57;1.48;;;-1.80;99.90;;;;;;5048423;28;20037;-57
2021/01/16 02:53:11;;;;;;;5.93;1.45;;;-1.80;99.90;;;;;;5048016;28;20060;-55
2021/01/16 02:55:40;;;;;;;5.88;2.35;;;-1.80;99.90;;;;;;5047962;28;20071;-56
2021/01/16 02:58:06;;;;;;;5.10;1.70;;;-1.80;99.90;;;;;;5028695;28;20041;-57
2021/01/16 03:00:32;;;;;;;5.03;1.80;;;-1.80;99.90;;;;;;5036591;28;20040;-57
2021/01/16 03:02:58;;;;;;;5.18;2.13;;;-1.80;99.90;;;;;;5048008;28;20035;-55
2021/01/16 03:05:23;;;;;;;5.43;1.48;;;-1.80;99.90;;;;;;5048452;28;20037;-54
2021/01/16 03:07:49;;;;;;;5.32;1.70;;;-1.80;99.90;;;;;;5047488;28;20126;-56
2021/01/16 03:10:16;;;;;;;3.97;1.48;;;-1.70;99.90;;;;;;5048637;28;20037;-56
2021/01/16 03:12:42;;;;;;;4.78;1.50;;;-1.70;99.90;;;;;;5052133;28;20119;-56
2021/01/16 03:15:15;;;;;;;4.43;1.25;;;-1.70;99.90;;;;;;5052424;28;20044;-57
2021/01/16 03:17:55;;;;;;;6.53;1.40;;;-1.70;99.90;;;;;;5047385;28;20041;-56
2021/01/16 03:20:30;;;;;;;4.50;1.45;;;-1.70;99.90;;;;;;5048888;28;20041;-58
2021/01/16 03:23:00;;;;;;;14.23;1.63;;;-1.70;99.90;;;;;;5047079;28;20630;-55
2021/01/16 03:25:28;;;;;;;6.68;2.05;;;-1.80;99.90;;;;;;5048287;28;20056;-57
2021/01/16 03:27:55;;;;;;;5.85;2.03;;;-1.80;99.90;;;;;;5047154;28;20044;-55
2021/01/16 03:30:22;;;;;;;3.67;1.83;;;-1.80;99.90;;;;;;5048696;28;20075;-57
2021/01/16 03:32:50;;;;;;;3.38;1.35;;;-1.80;99.90;;;;;;5046467;28;20037;-56
2021/01/16 03:35:18;;;;;;;3.95;1.65;;;-1.80;99.90;;;;;;5047291;28;20033;-57
2021/01/16 03:37:45;;;;;;;6.07;1.73;;;-1.80;99.90;;;;;;5048113;28;20116;-56
2021/01/16 03:40:12;;;;;;;2.95;1.33;;;-1.80;99.90;;;;;;5046404;28;20137;-57
2021/01/16 03:42:38;;;;;;;6.10;1.50;;;-1.80;99.90;;;;;;5040857;28;20067;-56
2021/01/16 03:45:12;;;;;;;4.53;1.77;;;-1.90;99.90;;;;;;5047433;28;20025;-57
2021/01/16 03:47:38;;;;;;;2.92;1.30;;;-1.90;99.90;;;;;;5047779;28;20404;-56
2021/01/16 03:50:06;;;;;;;3.40;0.90;;;-1.90;99.90;;;;;;5047419;28;20025;-56
2021/01/16 03:52:34;;;;;;;1.70;0.70;;;-1.90;99.90;;;;;;5045292;28;20033;-55
2021/01/16 03:55:00;;;;;;;3.95;0.88;;;-1.90;99.90;;;;;;5047238;28;20052;-56
2021/01/16 03:57:27;;;;;;;6.93;0.90;;;-1.90;99.90;;;;;;5048404;28;20029;-57
2021/01/16 03:59:54;;;;;;;4.88;1.08;;;-1.90;99.90;;;;;;5052000;28;20461;-57
2021/01/16 04:02:20;;;;;;;4.20;1.25;;;-1.90;99.90;;;;;;5051044;28;20328;-57
2021/01/16 04:04:47;;;;;;;2.67;1.10;;;-1.80;99.90;;;;;;5051996;28;20024;-56
2021/01/16 04:07:13;;;;;;;5.97;1.30;;;-1.80;99.90;;;;;;5051267;28;20067;-55
2021/01/16 04:09:43;;;;;;;3.40;1.20;;;-1.90;99.90;;;;;;5050491;28;20451;-55
2021/01/16 04:12:09;;;;;;;5.35;1.65;;;-1.90;99.90;;;;;;5050193;28;20332;-59
2021/01/16 04:14:36;;;;;;;3.65;1.25;;;-1.90;99.90;;;;;;5051511;28;20106;-56
2021/01/16 04:17:09;;;;;;;3.58;1.60;;;-2.00;99.90;;;;;;5051707;28;20527;-57
2021/01/16 04:19:36;;;;;;;3.70;1.60;;;-2.00;99.90;;;;;;5049999;28;20135;-55
2021/01/16 04:22:02;;;;;;;5.53;1.80;;;-2.00;99.90;;;;;;5050473;28;20431;-56
2021/01/16 04:24:28;;;;;;;5.88;1.88;;;-2.00;99.90;;;;;;5050210;28;20543;-53
2021/01/16 04:26:54;;;;;;;4.50;1.42;;;-2.00;99.90;;;;;;5051560;28;20124;-57
2021/01/16 04:29:20;;;;;;;4.85;1.70;;;-2.00;99.90;;;;;;5050603;28;20446;-56
2021/01/16 04:31:47;;;;;;;5.93;1.85;;;-2.00;99.90;;;;;;5050538;28;20434;-56
2021/01/16 04:34:13;;;;;;;6.28;1.52;;;-2.00;99.90;;;;;;5049082;28;20057;-57
2021/01/16 04:36:39;;;;;;;5.97;1.38;;;-2.00;99.90;;;;;;5051200;28;20508;-56
2021/01/16 04:39:05;;;;;;;3.92;1.40;;;-2.10;99.90;;;;;;5050422;28;20075;-57
2021/01/16 04:41:34;;;;;;;4.18;1.50;;;-2.10;99.90;;;;;;5050322;28;20040;-55
2021/01/16 04:44:00;;;;;;;3.30;1.17;;;-2.10;99.90;;;;;;5049839;28;20061;-55
2021/01/16 04:46:26;;;;;;;3.40;1.23;;;-2.20;99.90;;;;;;5049993;28;20452;-56
2021/01/16 04:49:02;;;;;;;5.72;1.80;;;-2.20;99.90;;;;;;5050814;28;20064;-55
2021/01/16 04:51:32;;;;;;;4.78;1.42;;;-2.20;99.90;;;;;;5049832;28;20036;-53
2021/01/16 04:54:00;;;;;;;3.67;1.10;;;-2.20;99.90;;;;;;5050063;28;20472;-57
2021/01/16 04:56:30;;;;;;;3.00;1.20;;;-2.10;99.90;;;;;;5050766;28;20060;-56
2021/01/16 04:58:56;;;;;;;2.85;1.02;;;-2.10;99.90;;;;;;5049913;28;20025;-56
2021/01/16 05:01:26;;;;;;;2.67;0.80;;;-2.10;99.90;;;;;;5049732;28;20461;-56
2021/01/16 05:03:54;;;;;;;2.53;0.90;;;-2.20;99.90;;;;;;5043372;28;20104;-56
2021/01/16 05:06:20;;;;;;;3.47;0.82;;;-2.20;99.90;;;;;;5030046;28;20075;-57
2021/01/16 05:08:46;;;;;;;4.10;1.02;;;-2.10;99.90;;;;;;5049587;28;20059;-57
2021/01/16 05:11:42;;;;;;;3.63;1.15;;;-2.10;99.90;;;;;;5050632;28;20098;-56
2021/01/16 05:14:16;;;;;;;4.30;1.00;;;-2.20;99.90;;;;;;5043215;28;20059;-54
2021/01/16 05:16:59;;;;;;;4.85;1.42;;;-2.10;99.90;;;;;;5050605;28;20116;-57
2021/01/16 05:19:35;;;;;;;5.00;0.98;;;-2.20;99.90;;;;;;5049489;28;20037;-55
2021/01/16 05:22:02;;;;;;;3.60;1.20;;;-2.20;99.90;;;;;;5057130;28;20107;-51
2021/01/16 05:24:28;;;;;;;5.35;1.17;;;-2.20;99.90;;;;;;5050549;28;20068;-56
2021/01/16 05:26:53;;;;;;;4.72;1.17;;;-2.20;99.90;;;;;;5050286;28;20063;-56
2021/01/16 05:29:22;;;;;;;3.97;1.35;;;-2.20;99.90;;;;;;5049413;28;20565;-53
2021/01/16 05:31:49;;;;;;;4.63;1.10;;;-2.20;99.90;;;;;;5050505;28;20495;-55
2021/01/16 05:34:15;;;;;;;4.78;1.55;;;-2.20;99.90;;;;;;5049147;28;20134;-57
2021/01/16 05:36:48;;;;;;;4.50;1.80;;;-2.20;99.90;;;;;;5049988;28;20033;-57
2021/01/16 05:39:16;;;;;;;6.32;1.67;;;-2.30;99.90;;;;;;5049218;28;20058;-55
2021/01/16 05:41:46;;;;;;;6.50;1.88;;;-2.30;99.90;;;;;;5049758;28;20037;-57
2021/01/16 05:44:13;;;;;;;4.88;1.50;;;-2.40;99.90;;;;;;5049034;28;20428;-54
2021/01/16 05:46:44;;;;;;;4.50;1.70;;;-2.40;99.90;;;;;;5049096;28;20400;-54
2021/01/16 05:49:16;;;;;;;5.53;1.88;;;-2.40;99.90;;;;;;5049728;28;20037;-55
2021/01/16 05:51:46;;;;;;;4.40;2.00;;;-2.40;99.90;;;;;;5048675;28;20045;-55
2021/01/16 05:54:18;;;;;;;4.95;1.58;;;-2.30;99.90;;;;;;5048981;28;20040;-57
2021/01/16 05:56:46;;;;;;;2.95;1.27;;;-2.30;99.90;;;;;;5049031;28;20159;-55
2021/01/16 05:59:17;;;;;;;4.45;1.50;;;-2.20;99.90;;;;;;5049659;28;20033;-55
2021/01/16 06:01:45;;;;;;;4.22;1.60;;;-2.30;99.90;;;;;;5047637;28;20047;-57
2021/01/16 06:04:21;;;;;;;3.33;1.40;;;-2.30;99.90;;;;;;5046546;28;20068;-55
2021/01/16 06:06:47;;;;;;;4.40;1.55;;;-2.30;99.90;;;;;;5049649;28;20037;-55
2021/01/16 06:09:18;;;;;;;4.38;1.65;;;-2.30;99.90;;;;;;5048717;28;20039;-56
2021/01/16 06:11:49;;;;;;;8.20;2.15;;;-2.30;99.90;;;;;;5048301;28;20589;-56
2021/01/16 06:14:15;;;;;;;4.47;1.48;;;-2.30;99.90;;;;;;5047423;28;20092;-51
2021/01/16 06:17:04;;;;;;;2.65;1.58;;;-2.30;99.90;;;;;;5049670;28;20029;-56
2021/01/16 06:19:30;;;;;;;4.38;1.08;;;-2.30;99.90;;;;;;5048268;28;20033;-55
2021/01/16 06:21:56;;;;;;;3.92;1.92;;;-2.40;99.90;;;;;;5047926;28;20383;-52
2021/01/16 06:24:23;;;;;;;5.22;1.77;;;-2.30;99.90;;;;;;5048215;28;20119;-52
2021/01/16 06:26:57;;;;;;;6.35;2.13;;;-2.30;99.90;;;;;;5047592;28;20179;-56
2021/01/16 06:29:32;;;;;;;4.65;1.73;;;-2.30;99.90;;;;;;5048134;28;20154;-57
2021/01/16 06:32:11;;;;;;;3.83;1.88;;;-2.30;99.90;;;;;;5045430;28;20373;-57
2021/01/16 06:34:42;;;;;;;7.32;2.58;;;-2.30;99.90;;;;;;5038699;28;20112;-55
2021/01/16 06:37:15;;;;;;;6.68;2.38;;;-2.30;99.90;;;;;;5041665;28;20444;-53
2021/01/16 06:39:44;;;;;;;5.65;2.28;;;-2.40;99.90;;;;;;5049250;28;20365;-55
2021/01/16 06:42:12;;;;;;;6.32;2.08;;;-2.40;99.90;;;;;;5046728;28;20106;-55
2021/01/16 06:44:39;;;;;;;4.45;1.45;;;-2.40;99.90;;;;;;5049181;28;20036;-56
2021/01/16 06:47:06;;;;;;;5.40;1.77;;;-2.40;99.90;;;;;;5043550;28;20038;-55
2021/01/16 06:49:33;;;;;;;5.68;1.38;;;-2.40;99.90;;;;;;5047044;28;20037;-58
2021/01/16 06:52:02;;;;;;;4.82;1.58;;;-2.40;99.90;;;;;;5047867;28;20037;-56
2021/01/16 06:54:32;;;;;;;1.75;0.68;;;-2.30;98.80;;;;;;5048736;28;20045;-57
2021/01/16 06:57:05;;;;;;;4.90;1.42;;;-2.30;98.60;;;;;;5047409;28;20613;-57
2021/01/16 06:59:32;;;;;;;5.38;1.23;;;-2.40;98.00;;;;;;5047637;28;20033;-56
2021/01/16 07:01:59;;;;;;;4.32;1.50;;;-2.30;97.90;;;;;;5045196;28;20039;-57
2021/01/16 07:04:27;;;;;;;3.80;1.13;;;-2.40;97.40;;;;;;5047290;28;20432;-56
2021/01/16 07:06:55;;;;;;;3.00;0.98;;;-2.30;97.00;;;;;;5047320;28;20460;-57
2021/01/16 07:09:24;;;;;;;4.22;1.40;;;-2.20;97.40;;;;;;5030609;28;20142;-57
2021/01/16 07:11:53;;;;;;;3.55;1.10;;;-2.30;97.10;;;;;;5034166;28;20064;-57
2021/01/16 07:14:20;;;;;;;2.10;1.10;;;-2.20;96.20;;;;;;5048413;28;20059;-56
2021/01/16 07:16:47;;;;;;;4.32;1.05;;;-2.20;96.40;;;;;;5048399;28;20507;-56
2021/01/16 07:19:20;;;;;;;3.50;1.17;;;-2.20;96.40;;;;;;5048396;28;20033;-55
2021/01/16 07:21:48;;;;;;;5.63;1.00;;;-2.20;96.40;;;;;;5048651;28;20432;-56
2021/01/16 07:24:15;;;;;;;4.15;1.00;;;-2.20;96.20;;;;;;5041063;28;20592;-57
2021/01/16 07:26:44;;;;;;;5.68;1.30;;;-2.20;97.00;;;;;;5034961;28;20112;-57
2021/01/16 07:29:10;;;;;;;5.65;1.88;;;-2.10;98.30;;;;;;5048277;28;20033;-56
2021/01/16 07:31:42;;;;;;;4.75;1.55;;;-2.20;98.30;;;;;;5047423;28;20037;-55
2021/01/16 07:34:08;;;;;;;3.10;1.52;;;-2.20;98.60;;;;;;5052437;28;20044;-59
2021/01/16 07:36:35;;;;;;;3.25;1.15;;;-2.20;98.10;;;;;;5049309;28;20028;-59
2021/01/16 07:39:04;;;;;;;3.25;1.25;;;-2.10;98.30;;;;;;5037617;28;20040;-56
2021/01/16 07:41:32;;;;;;;5.40;1.88;;;-2.10;97.60;;;;;;5045395;28;20037;-54
2021/01/16 07:44:08;;;;;;;4.03;1.52;;;-2.10;97.20;;;;;;5040867;28;20135;-59
2021/01/16 07:46:35;;;;;;;3.42;1.48;;;-2.00;96.90;;;;;;5040231;28;20037;-58
2021/01/16 07:49:04;;;;;;;5.68;1.60;;;-2.00;96.60;;;;;;5037125;28;20451;-58
2021/01/16 07:51:35;;;;;;;4.93;1.00;;;-2.00;96.80;;;;;;5039737;28;20489;-56
2021/01/16 07:54:21;;;;;;;4.63;1.35;;;-2.00;97.60;;;;;;5027817;28;20072;-53
2021/01/16 07:56:49;;;;;;;2.47;0.85;;;-2.00;97.00;;;;;;5036229;28;20040;-60
2021/01/16 07:59:18;;;;;;;7.13;1.63;;;-2.00;97.20;;;;;;5030190;28;20124;-56
2021/01/16 08:02:19;;;;;;;4.13;1.23;;;-1.90;96.90;;;;;;5039509;28;20036;-59
2021/01/16 08:05:15;;;;;;;6.10;1.40;;;-1.90;96.90;;;;;;5015243;28;20129;-59
2021/01/16 08:08:11;;;;;;;3.45;1.38;;;-1.90;96.70;;;;;;5036457;28;20033;-58
2021/01/16 08:10:37;;;;;;;6.50;1.60;;;-1.80;95.80;;;;;;5039657;28;20131;-60
2021/01/16 08:13:09;;;;;;;6.75;1.33;;;-1.70;96.80;;;;;;5039175;28;20041;-59
2021/01/16 08:15:39;;;;;;;3.53;1.33;;;-1.70;96.10;;;;;;5044872;28;20047;-59
2021/01/16 08:18:09;;;;;;;6.57;1.67;;;-1.70;96.40;;;;;;5034404;28;20040;-60
2021/01/16 08:20:39;;;;;;;3.75;1.23;;;-1.60;96.20;;;;;;5040473;28;20048;-56
2021/01/16 08:23:06;;;;;;;3.80;1.88;;;-1.60;96.80;;;;;;5038876;28;20037;-57
2021/01/16 08:25:33;;;;;;;5.45;2.05;;;-1.50;96.10;;;;;;5038113;28;20029;-58
2021/01/16 08:28:00;;;;;;;3.58;1.33;;;-1.50;95.70;;;;;;5039471;28;20484;-56
2021/01/16 08:30:28;;;;;;;4.07;1.45;;;-1.40;95.10;;;;;;5032040;28;20067;-57
2021/01/16 08:33:12;;;;;;;2.90;1.45;;;-1.30;95.50;;;;;;5030511;28;20544;-59
2021/01/16 08:35:37;;;;;;;5.97;1.65;;;-1.20;94.70;;;;;;5028530;28;20111;-60
2021/01/16 08:38:16;;;;;;;5.38;1.65;;;-1.10;94.50;;;;;;5034463;28;20044;-57
2021/01/16 08:40:49;;;;;;;4.25;2.08;;;-1.00;93.40;;;;;;5041409;28;20523;-58
2021/01/16 08:43:53;;;;;;;61.17;7.25;;;-1.00;93.10;;;;;;5035274;28;20393;-58
2021/01/16 08:46:39;;;;;;;9.60;2.08;;;-0.90;93.30;;;;;;5045013;28;20127;-58
2021/01/16 08:49:10;;;;;;;12.68;5.40;;;-0.80;92.30;;;;;;5038519;28;20044;-58
2021/01/16 08:51:40;;;;;;;11.80;4.10;;;-0.80;91.80;;;;;;5043411;28;20029;-59
2021/01/16 08:54:14;;;;;;;12.07;3.17;;;-0.60;91.70;;;;;;5051177;28;20025;-59
2021/01/16 08:56:45;;;;;;;12.20;4.63;;;-0.60;92.00;;;;;;5051159;28;20029;-59
2021/01/16 08:59:18;;;;;;;8.05;3.42;;;-0.50;92.70;;;;;;5051286;28;20037;-59
2021/01/16 09:01:48;;;;;;;7.55;3.33;;;-0.40;91.80;;;;;;5050849;28;20037;-59
2021/01/16 09:04:22;;;;;;;7.53;2.45;;;-0.40;91.10;;;;;;5051046;28;20124;-59
2021/01/16 09:06:49;;;;;;;5.43;2.25;;;-0.30;90.80;;;;;;5050681;28;20033;-59
2021/01/16 09:09:35;;;;;;;6.80;2.38;;;-0.20;91.20;;;;;;5050481;28;20036;-60
2021/01/16 09:12:06;;;;;;;9.45;2.75;;;-0.20;90.80;;;;;;5050380;28;20045;-59
2021/01/16 09:14:33;;;;;;;4.88;1.80;;;-0.20;90.40;;;;;;5050443;28;20124;-59
2021/01/16 09:17:23;;;;;;;10.05;2.65;;;0.00;89.60;;;;;;5050493;28;20033;-59
2021/01/16 09:19:57;;;;;;;7.43;2.53;;;0.10;88.80;;;;;;5048306;28;20505;-60
2021/01/16 09:22:24;;;;;;;7.07;2.90;;;0.20;87.20;;;;;;5030645;28;20056;-59
2021/01/16 09:24:50;;;;;;;7.68;2.88;;;0.30;87.30;;;;;;5030764;28;20026;-59
2021/01/16 09:27:27;;;;;;;10.40;2.65;;;0.40;86.20;;;;;;5058116;28;20445;-59
2021/01/16 09:29:54;;;;;;;6.60;2.85;;;0.50;87.40;;;;;;5070357;28;20028;-59
2021/01/16 09:32:35;;;;;;;4.43;2.40;;;0.50;85.00;;;;;;5046121;28;20586;-60
2021/01/16 09:35:02;;;;;;;8.45;3.53;;;0.60;85.40;;;;;;5049527;28;20247;-60
2021/01/16 09:37:30;;;;;;;13.23;2.40;;;0.70;84.10;;;;;;5028376;28;20037;-59
2021/01/16 09:40:11;;;;;;;5.50;2.30;;;0.80;83.50;;;;;;5042868;28;20446;-59
2021/01/16 09:42:49;;;;;;;5.78;2.67;;;0.90;81.50;;;;;;5048234;28;20061;-59
2021/01/16 09:45:18;;;;;;;5.40;1.83;;;1.00;82.90;;;;;;5049307;28;20048;-59
2021/01/16 09:47:45;;;;;;;6.60;2.10;;;1.00;80.90;;;;;;5046668;28;20029;-59
2021/01/16 09:50:14;;;;;;;4.18;2.00;;;1.10;80.10;;;;;;5045617;28;20036;-59
2021/01/16 09:52:52;;;;;;;4.20;1.70;;;1.20;81.30;;;;;;5048036;28;20615;-59
2021/01/16 09:55:23;;;;;;;5.20;2.08;;;1.20;79.00;;;;;;5039768;28;20049;-60
2021/01/16 09:57:49;;;;;;;5.57;2.70;;;1.40;78.30;;;;;;5040638;28;20158;-60
2021/01/16 10:00:16;;;;;;;7.65;2.50;;;1.40;79.10;;;;;;5047961;28;20037;-60
2021/01/16 10:02:46;;;;;;;5.80;2.15;;;1.40;79.60;;;;;;5050188;28;20044;-60
2021/01/16 10:05:26;;;;;;;5.55;1.73;;;1.50;79.70;;;;;;5049824;28;20040;-60
2021/01/16 10:07:53;;;;;;;5.90;2.05;;;1.60;77.00;;;;;;5033275;28;20853;-60
2021/01/16 10:10:19;;;;;;;5.22;2.03;;;1.70;77.00;;;;;;5048648;28;20028;-60
2021/01/16 10:12:46;;;;;;;6.72;2.15;;;1.70;77.20;;;;;;5049685;28;20162;-60
2021/01/16 10:15:17;;;;;;;3.80;2.22;;;1.60;78.50;;;;;;5049281;28;20041;-60
2021/01/16 10:17:50;;;;;;;7.43;2.65;;;1.50;79.10;;;;;;5043383;28;20037;-60
2021/01/16 10:20:17;;;;;;;10.90;2.92;;;1.60;75.90;;;;;;5046194;28;20381;-60
2021/01/16 10:22:47;;;;;;;7.15;2.72;;;1.70;75.90;;;;;;5046062;28;20511;-60
2021/01/16 10:25:15;;;;;;;6.95;2.40;;;2.00;74.80;;;;;;5042692;28;20040;-60
2021/01/16 10:27:46;;;;;;;3.97;2.42;;;1.90;72.80;;;;;;5046083;28;20064;-60
2021/01/16 10:30:17;;;;;;;6.50;2.92;;;1.90;72.00;;;;;;5046816;28;20037;-60
2021/01/16 10:32:44;;;;;;;5.22;1.65;;;1.80;72.30;;;;;;5049104;28;20028;-60
2021/01/16 10:35:21;;;;;;;4.30;1.67;;;1.80;74.00;;;;;;5049565;28;20033;-60
2021/01/16 10:37:48;;;;;;;4.30;1.98;;;1.70;73.20;;;;;;5037125;28;20037;-60
2021/01/16 10:40:14;;;;;;;4.55;1.58;;;1.80;74.60;;;;;;5048374;28;20045;-60
2021/01/16 10:42:45;;;;;;;5.80;1.60;;;1.90;74.60;;;;;;5048369;28;20112;-60
2021/01/16 10:45:13;;;;;;;3.58;1.25;;;2.00;73.10;;;;;;5048747;28;20064;-60
2021/01/16 10:47:42;;;;;;;6.03;1.75;;;2.00;74.80;;;;;;5048831;28;20033;-60
2021/01/16 10:50:28;;;;;;;6.63;1.98;;;2.10;74.00;;;;;;5048743;28;20029;-60
2021/01/16 10:53:04;;;;;;;5.03;2.00;;;2.10;73.90;;;;;;5032802;28;20041;-60
2021/01/16 10:55:54;;;;;;;6.75;2.03;;;2.30;72.20;;;;;;5028592;28;20636;-60
2021/01/16 10:58:27;;;;;;;4.28;1.85;;;2.40;71.30;;;;;;5028877;28;20503;-60
2021/01/16 11:00:55;;;;;;;7.50;2.58;;;2.50;70.50;;;;;;5036986;28;20071;-62
2021/01/16 11:03:29;;;;;;;7.18;2.28;;;2.70;70.40;;;;;;5046621;28;20021;-60
2021/01/16 11:06:02;;;;;;;5.85;2.05;;;2.70;72.50;;;;;;5040051;28;20074;-60
2021/01/16 11:08:29;;;;;;;6.15;2.08;;;2.60;73.20;;;;;;5045893;28;20068;-60
2021/01/16 11:10:56;;;;;;;4.50;2.25;;;2.50;73.70;;;;;;5041453;28;20051;-60
2021/01/16 11:13:29;;;;;;;6.43;2.33;;;2.50;73.30;;;;;;5040656;28;20419;-60
2021/01/16 11:15:56;;;;;;;5.75;2.35;;;2.40;73.90;;;;;;5036412;28;20068;-60
2021/01/16 11:18:34;;;;;;;6.82;2.28;;;2.60;72.90;;;;;;5034743;28;20040;-60
2021/01/16 11:21:03;;;;;;;5.63;2.28;;;2.70;73.20;;;;;;5034289;28;20064;-60
2021/01/16 11:23:31;;;;;;;4.93;2.20;;;2.70;71.90;;;;;;5038657;28;20093;-59
2021/01/16 11:26:04;;;;;;;6.00;2.55;;;2.70;71.80;;;;;;5039513;28;20458;-60
2021/01/16 11:28:45;;;;;;;3.30;1.92;;;2.80;73.60;;;;;;5046803;28;20040;-60
2021/01/16 11:31:35;;;;;;;9.25;2.17;;;2.70;71.90;;;;;;5048807;28;20033;-60
2021/01/16 11:34:11;;;;;;;4.90;2.20;;;2.80;70.50;;;;;;5047685;28;20134;-60
2021/01/16 11:37:01;;;;;;;6.80;1.80;;;3.00;69.40;;;;;;5047787;28;20045;-60
2021/01/16 11:39:50;;;;;;;4.07;1.92;;;3.10;69.90;;;;;;5047246;28;20033;-60
2021/01/16 11:42:18;;;;;;;4.80;2.05;;;3.10;67.70;;;;;;5046468;28;20671;-59
2021/01/16 11:45:02;;;;;;;4.28;1.60;;;3.10;70.20;;;;;;5048760;28;20618;-59
2021/01/16 11:47:29;;;;;;;4.70;1.23;;;3.20;70.30;;;;;;5045593;28;20044;-59
2021/01/16 11:49:57;;;;;;;3.17;1.40;;;3.20;69.90;;;;;;5047594;28;20037;-60
2021/01/16 11:52:23;;;;;;;4.03;1.17;;;3.20;69.90;;;;;;5048957;28;20036;-59
2021/01/16 11:54:49;;;;;;;2.60;1.33;;;3.30;68.00;;;;;;5047628;28;20048;-61
2021/01/16 11:57:19;;;;;;;3.30;0.73;;;3.30;67.70;;;;;;5045847;28;20033;-60
2021/01/16 11:59:46;;;;;;;2.13;0.80;;;3.30;68.00;;;;;;5048752;28;20044;-62
2021/01/16 12:02:18;;;;;;;3.42;1.23;;;3.30;67.00;;;;;;5046636;28;20033;-59
2021/01/16 12:04:45;;;;;;;5.32;1.10;;;3.40;68.10;;;;;;5048794;28;20041;-60
2021/01/16 12:07:19;;;;;;;2.67;0.93;;;3.40;67.70;;;;;;5043425;28;20052;-61
2021/01/16 12:09:46;;;;;;;3.28;1.10;;;3.40;68.10;;;;;;5048653;28;20037;-59
2021/01/16 12:12:13;;;;;;;4.28;1.23;;;3.40;66.10;;;;;;5046782;28;20087;-59
2021/01/16 12:14:41;;;;;;;2.92;1.42;;;3.30;68.50;;;;;;5048046;28;20045;-60
2021/01/16 12:17:12;;;;;;;2.20;0.80;;;3.30;69.70;;;;;;5046059;28;20108;-59
2021/01/16 12:19:39;;;;;;;3.58;0.70;;;3.30;71.10;;;;;;5051057;28;20057;-60
2021/01/16 12:22:09;;;;;;;4.20;1.05;;;3.30;71.20;;;;;;5050807;28;20029;-60
2021/01/16 12:24:36;;;;;;;2.00;0.85;;;3.30;72.50;;;;;;5051335;28;20033;-60
2021/01/16 12:27:04;;;;;;;3.22;0.70;;;3.30;72.20;;;;;;5051082;28;20119;-58
2021/01/16 12:29:42;;;;;;;2.42;0.95;;;3.30;72.10;;;;;;5038758;28;20037;-60
2021/01/16 12:32:10;;;;;;;2.60;0.65;;;3.30;71.70;;;;;;5039222;28;20091;-59
2021/01/16 12:34:47;;;;;;;1.20;0.60;;;3.30;71.70;;;;;;5045911;28;20053;-60
2021/01/16 12:37:13;;;;;;;1.63;0.50;;;3.30;71.70;;;;;;5031413;28;20067;-59
2021/01/16 12:39:43;;;;;;;2.03;0.70;;;3.30;71.30;;;;;;5039406;28;20033;-59
2021/01/16 12:42:10;;;;;;;1.40;0.60;;;3.40;70.00;;;;;;5038028;28;20054;-59
2021/01/16 12:44:36;;;;;;;1.35;0.55;;;3.40;73.00;;;;;;5031170;28;20037;-59
2021/01/16 12:47:02;;;;;;;1.77;0.60;;;3.40;71.40;;;;;;5031559;28;20045;-60
2021/01/16 12:49:28;;;;;;;2.35;0.70;;;3.40;70.70;;;;;;5040299;28;20047;-59
2021/01/16 12:51:54;;;;;;;10.55;0.95;;;3.50;69.30;;;;;;5050017;28;20124;-59
2021/01/16 12:54:20;;;;;;;2.92;0.45;;;3.50;70.60;;;;;;5045951;28;20501;-59
2021/01/16 12:56:49;;;;;;;4.63;0.70;;;3.40;70.00;;;;;;5050119;28;20024;-59
2021/01/16 12:59:19;;;;;;;2.60;0.57;;;3.40;70.40;;;;;;5049424;28;20028;-60
2021/01/16 13:01:50;;;;;;;3.13;0.80;;;3.40;69.40;;;;;;5044376;28;20045;-60
2021/01/16 13:04:18;;;;;;;2.85;0.80;;;3.40;70.10;;;;;;5050801;28;20029;-60